Terminal Aerodrome Forecast
Issued by NWS Wilmington, OH

Current Version | Previous Version | Graphics & Text | Print | Product List | Glossary Off
Versions: 1 2 3 4 5 6 7 8 9 10 11 12 13 14 15 16 17 18 19 20 21 22 23 24 25 26

210
FTUS41 KILN 201139
TAFDAY
TAF
KDAY 201139Z 2012/2112 20015KT P6SM SCT080 BKN250 WS020/22050KT
     FM201400 20018G28KT P6SM FEW045 BKN100
     FM201800 21020G30KT P6SM FEW040
     FM202200 19015G22KT P6SM BKN035
     FM210600 19015G22KT P6SM VCSH BKN025 OVC040
     FM211000 33012KT 4SM -SHRA BR OVC012=

USA.gov is the U.S. government's official web portal to all federal, state and local government web resources and services.